< < Back
Terminal Aerodrome Forecast


Current Version              Previous Versions:   1  2  3  4  5  6  7  8  9  

Terminal Aerodrome Forecast

538
FTUS42 KCHS 061129
TAFCHS
TAF
KCHS 061129Z 0612/0712 03012G18KT P6SM OVC018
     FM062000 35010KT P6SM SCT015 BKN040
     FM062300 36005KT P6SM SCT040
     FM070300 VRB03KT P6SM SKC=



Latest METAR

437
SAUS80 KWBC 062100 RRA
MTRCHS
METAR KCHS 062056Z 03010KT 10SM BKN038 OVC045 08/M01 A3037 RMK AO2
SLP283 T00781006 55012


USA.gov is the U.S. government's official web portal to all federal, state and local government web resources and services.